Flight Track Log - Related Links

Times and Time Zones

All times are in EDT time to prevent confusion due to time zone crossing. See the UPS617 flight status page for this flight to view local times or setup timezone preferences in your user account.

Time Position Orientation Groundspeed Altitude Reporting Facility
EDT Latitude Longitude Course Direction KTS MPH feet Rate Location/Type
11:59PM 40.6883 -89.7197 189° South 190 219 2,600  Level Chicago Center
12:05AM 40.6628 -89.6936 189° South  Level FlightAware Approximate
12:05AM 40.5006 -89.2367 123° Southeast 420 483 17,000  Level FlightAware ADS-B (EGPH / EDI)
12:06AM 40.4088 -89.0506 123° Southeast 433 498 20,300 2,577 Climbing FlightAware ADS-B
12:07AM 40.3493 -88.9304 123° Southeast 447 514 23,100 2,457 Climbing FlightAware ADS-B
12:08AM 40.2922 -88.8157 123° Southeast 447 514 24,600 2,560 Climbing FlightAware ADS-B
12:08AM 40.2474 -88.7258 123° Southeast 444 511 26,300 1,714 Climbing FlightAware ADS-B
12:09AM 40.2310 -88.6931 123° Southeast 449 517 27,000 472 Climbing FlightAware ADS-B
12:10AM 40.1646 -88.5599 123° Southeast 452 520 27,000  Level FlightAware ADS-B
12:13AM 39.8999 -88.0395 124° Southeast 444 511 27,000  Level FlightAware ADS-B
12:14AM 39.8494 -87.9414 124° Southeast 442 509 27,000  Level Indianapolis Center
12:19AM 39.4757 -87.2345 133° Southeast 432 497 27,000  Level FlightAware ADS-B
12:20AM 39.4275 -87.1733 133° Southeast 435 501 27,000  Level Indianapolis Center
12:21AM 39.3425 -87.0672 136° Southeast 432 497 27,000 -347 Level Indianapolis Center
12:22AM 39.2583 -86.9639 136° Southeast 412 474 26,300 -1,438 Descending Indianapolis Center
12:23AM 39.1789 -86.8658 136° Southeast 397 457 24,100 -2,213 Descending Indianapolis Center
12:24AM 39.0944 -86.7628 137° Southeast 379 436 21,800 -2,164 Descending Indianapolis Center
12:25AM 39.0197 -86.6719 137° Southeast 368 423 19,700 -2,311 Descending Indianapolis Center
12:26AM 38.9419 -86.5778 137° Southeast 358 412 17,100 -2,361 Descending Indianapolis Center
12:27AM 38.8689 -86.4897 137° Southeast 352 405 14,900 -2,115 Descending Indianapolis Center
12:28AM 38.8050 -86.4119 136° Southeast 348 400 12,800 -1,438 Descending Indianapolis Center
12:29AM 38.7719 -86.2983 110° East 329 379 12,000 -1,091 Descending Indianapolis Center
12:30AM 38.7375 -86.1983 114° Southeast 304 350 10,600 -1,475 Descending Indianapolis Center
12:31AM 38.7014 -86.1028 116° Southeast 299 344 9,000 -1,525 Descending Indianapolis Center
12:32AM 38.6650 -86.0100 117° Southeast 287 330 7,500 -1,426 Descending Indianapolis Center
12:33AM 38.6189 -85.9325 127° Southeast 275 316 6,100 -744 Descending Indianapolis Center
12:34AM 38.5661 -85.8678 136° Southeast 263 303 6,000 -446 Descending Indianapolis Center
12:35AM 38.4992 -85.8364 160° South 257 296 5,200 -984 Descending Indianapolis Center
12:36AM 38.4311 -85.8131 165° South 254 292 4,000 -590 Descending Indianapolis Center
12:37AM 38.3644 -85.7947 168° South 252 290 4,000 -496 Level Indianapolis Center
12:38AM 38.3044 -85.7711 163° South 242 278 3,000 -843 Descending Indianapolis Center
12:39AM 38.2558 -85.7550 165° South 208 239 2,300 -689 Descending Indianapolis Center
12:42AM 38.1741 -85.7365 166° South  Level Estimated
12:49AM 38.1741 -85.7365 North  Level Estimated

Login

Don't have an account? Register now (free) for customized features, flight alerts, and more!